Time;durP1;ratioP1;P1;durP2;ratioP2;P2;SDS_P1;SDS_P2;PMS_P1;PMS_P2;Temp;Humidity;BMP_temperature;BMP_pressure;BME280_temperature;BME280_humidity;BME280_pressure;Samples;Min_cycle;Max_cycle;Signal;HPM_P1;HPM_P2
2022/11/06 00:01:30;;;;;;;23.75;18.02;;;333.20;2329.60;;;;;;4990080;28;20066;-79
2022/11/06 00:03:56;;;;;;;26.17;16.58;;;333.20;2329.60;;;;;;4989252;28;20027;-79
2022/11/06 00:09:10;;;;;;;26.77;18.30;;;333.10;2329.60;;;;;;4991055;28;20510;-77
2022/11/06 00:11:36;;;;;;;31.73;19.70;;;333.10;2329.60;;;;;;4990299;28;20249;-78
2022/11/06 00:14:02;;;;;;;29.05;20.17;;;333.10;2329.60;;;;;;4974251;28;20674;-78
2022/11/06 00:16:28;;;;;;;26.20;17.75;;;333.10;2329.60;;;;;;5004406;28;20115;-78
2022/11/06 00:18:54;;;;;;;28.02;19.10;;;333.20;2329.60;;;;;;5073900;28;20023;-77
2022/11/06 00:21:23;;;;;;;25.60;17.40;;;333.20;2329.60;;;;;;5073343;28;20434;-78
2022/11/06 00:23:50;;;;;;;27.13;19.70;;;333.20;2329.60;;;;;;5073669;28;20027;-78
2022/11/06 00:26:18;;;;;;;27.73;18.77;;;333.70;2329.60;;;;;;5074040;28;20024;-78
2022/11/06 00:28:45;;;;;;;24.52;18.08;;;333.20;2329.60;;;;;;5071386;28;20016;-77
2022/11/06 00:31:13;;;;;;;29.83;18.92;;;333.20;2329.60;;;;;;5073519;28;20020;-77
2022/11/06 00:33:39;;;;;;;28.15;18.23;;;333.30;2329.60;;;;;;5073718;28;20032;-78
2022/11/06 00:36:07;;;;;;;29.98;17.02;;;333.30;2329.60;;;;;;5073773;28;20055;-77
2022/11/06 00:38:32;;;;;;;32.15;18.60;;;333.20;2329.60;;;;;;5073425;28;20103;-78
2022/11/06 00:41:08;;;;;;;30.63;20.45;;;333.20;2329.60;;;;;;5073086;28;20144;-77
2022/11/06 00:43:34;;;;;;;25.70;18.85;;;333.20;2329.60;;;;;;5075729;28;20382;-78
2022/11/06 00:46:11;;;;;;;26.98;18.92;;;333.30;2329.60;;;;;;5077606;28;20024;-77
2022/11/06 00:48:38;;;;;;;25.90;18.10;;;333.30;2329.60;;;;;;5077922;28;20024;-78
2022/11/06 00:51:09;;;;;;;30.83;17.65;;;333.20;2329.60;;;;;;5094923;28;20038;-77
2022/11/06 00:53:36;;;;;;;26.35;18.20;;;333.20;2329.60;;;;;;5077270;28;20547;-75
2022/11/06 00:56:09;;;;;;;33.08;20.52;;;333.10;2329.60;;;;;;5095056;28;20024;-75
2022/11/06 00:58:35;;;;;;;26.00;19.23;;;333.20;2329.60;;;;;;5095379;28;20093;-76
2022/11/06 01:01:11;;;;;;;29.17;18.52;;;333.10;2329.60;;;;;;5095468;28;20020;-76
2022/11/06 01:03:38;;;;;;;;;;;333.20;2329.60;;;;;;5095509;28;20521;-75
2022/11/06 01:06:12;;;;;;;29.30;20.02;;;333.20;2329.60;;;;;;5095288;28;19999;-75
2022/11/06 01:08:38;;;;;;;26.13;18.52;;;333.10;2329.60;;;;;;5077028;28;20024;-77
2022/11/06 01:11:25;;;;;;;30.98;18.83;;;333.10;2329.60;;;;;;5076697;28;20019;-75
2022/11/06 01:13:54;;;;;;;31.05;19.67;;;333.10;2329.60;;;;;;5074953;28;20027;-75
2022/11/06 01:16:20;;;;;;;28.73;19.48;;;333.10;2329.60;;;;;;5094846;28;20481;-77
2022/11/06 01:18:47;;;;;;;29.33;19.98;;;333.20;2329.60;;;;;;5092141;28;20039;-75
2022/11/06 01:21:19;;;;;;;28.73;19.92;;;333.20;2329.60;;;;;;5076521;28;20390;-77
2022/11/06 01:23:45;;;;;;;29.42;20.17;;;333.20;2329.60;;;;;;5094780;28;20117;-76
2022/11/06 01:26:13;;;;;;;28.50;19.77;;;333.10;2329.60;;;;;;5076013;28;20028;-76
2022/11/06 01:28:39;;;;;;;29.73;19.23;;;333.20;2329.60;;;;;;5094963;28;20016;-77
2022/11/06 01:31:09;;;;;;;27.70;19.77;;;333.10;2329.60;;;;;;5094742;28;20039;-76
2022/11/06 01:33:35;;;;;;;28.48;19.25;;;333.20;2329.60;;;;;;5094548;28;20028;-75
2022/11/06 01:36:01;;;;;;;30.48;20.98;;;333.20;2329.60;;;;;;5076363;28;20028;-75
2022/11/06 01:38:27;;;;;;;33.67;21.65;;;333.30;2329.60;;;;;;5091561;28;20012;-75
2022/11/06 01:40:53;;;;;;;32.80;22.27;;;333.30;2329.60;;;;;;5075773;28;20490;-76
2022/11/06 01:43:24;;;;;;;28.90;20.85;;;333.30;2329.60;;;;;;5094513;28;20477;-77
2022/11/06 01:45:52;;;;;;;30.00;21.25;;;333.30;2329.60;;;;;;5092213;28;20055;-75
2022/11/06 01:48:21;;;;;;;31.92;22.67;;;333.30;2329.60;;;;;;5094375;28;20024;-77
2022/11/06 01:50:54;;;;;;;28.80;20.60;;;333.30;2329.60;;;;;;5073225;28;20090;-78
2022/11/06 01:53:21;;;;;;;30.25;20.30;;;333.40;2329.60;;;;;;5075616;28;20016;-76
2022/11/06 01:55:50;;;;;;;28.73;20.40;;;333.30;2329.60;;;;;;5093689;28;20024;-75
2022/11/06 01:58:19;;;;;;;29.00;20.10;;;333.30;2329.60;;;;;;5076030;28;20027;-76
2022/11/06 02:00:45;;;;;;;29.02;20.10;;;333.20;2329.60;;;;;;5094092;28;20099;-76
2022/11/06 02:03:12;;;;;;;31.60;20.20;;;333.20;2329.60;;;;;;5076177;28;20026;-78
2022/11/06 02:05:39;;;;;;;31.23;22.23;;;333.20;2329.60;;;;;;5094037;28;20474;-75
2022/11/06 02:08:07;;;;;;;28.67;21.50;;;333.20;2329.60;;;;;;5093883;28;20096;-75
2022/11/06 02:10:33;;;;;;;35.42;23.88;;;333.30;2329.60;;;;;;5093986;28;20107;-77
2022/11/06 02:13:34;;;;;;;33.22;23.17;;;333.30;2329.60;;;;;;5093665;28;20051;-76
2022/11/06 02:16:30;;;;;;;32.05;22.52;;;333.30;2329.60;;;;;;4993838;28;20132;-78
2022/11/06 02:18:56;;;;;;;30.55;23.08;;;333.40;2329.60;;;;;;4993263;28;20030;-78
2022/11/06 02:21:49;;;;;;;32.30;22.20;;;333.40;2329.60;;;;;;5011689;28;20088;-75
2022/11/06 02:24:20;;;;;;;35.40;21.98;;;333.40;2329.60;;;;;;5009419;28;20059;-76
2022/11/06 02:27:11;;;;;;;29.30;21.13;;;333.30;2329.60;;;;;;5011226;28;20512;-76
2022/11/06 02:30:08;;;;;;;32.90;21.27;;;333.30;2329.60;;;;;;5011358;28;20108;-77
2022/11/06 02:32:57;;;;;;;28.08;19.50;;;333.30;2329.60;;;;;;5009455;28;20125;-76
2022/11/06 02:35:56;;;;;;;32.03;22.08;;;333.20;2329.60;;;;;;5011338;28;20037;-75
2022/11/06 02:38:29;;;;;;;32.28;22.52;;;333.20;2329.60;;;;;;4992240;28;20092;-75
2022/11/06 02:40:59;;;;;;;30.70;20.85;;;333.20;1971.20;;;;;;4990442;28;20053;-78
2022/11/06 02:43:37;;;;;;;31.30;20.05;;;333.00;2329.60;;;;;;5010447;28;20018;-75
2022/11/06 02:46:08;;;;;;;32.42;21.65;;;333.30;2329.60;;;;;;5010239;28;20479;-76
2022/11/06 02:48:41;;;;;;;26.67;18.13;;;333.20;1945.60;;;;;;5010929;28;20036;-77
2022/11/06 02:51:09;;;;;;;29.25;19.77;;;333.20;2329.60;;;;;;5018678;28;20087;-76
2022/11/06 02:53:38;;;;;;;27.45;17.90;;;333.20;2022.40;;;;;;5093433;28;20016;-77
2022/11/06 02:56:11;;;;;;;24.67;17.60;;;333.20;2022.40;;;;;;5074752;28;20032;-78
2022/11/06 02:58:42;;;;;;;31.55;19.67;;;333.20;2201.60;;;;;;5066997;28;20054;-75
2022/11/06 03:01:14;;;;;;;23.42;17.67;;;333.10;2048.00;;;;;;5074294;28;20024;-75
2022/11/06 03:03:46;;;;;;;26.02;18.00;;;333.20;2048.00;;;;;;5093013;28;20026;-75
2022/11/06 03:06:41;;;;;;;23.90;16.60;;;333.30;2278.40;;;;;;5073672;28;20016;-76
2022/11/06 03:09:13;;;;;;;30.08;20.30;;;333.20;2329.60;;;;;;5072992;28;20035;-75
2022/11/06 03:11:39;;;;;;;36.13;20.52;;;333.20;2252.80;;;;;;5091000;28;20081;-78
2022/11/06 03:14:04;;;;;;;30.80;20.33;;;333.20;2329.60;;;;;;5092422;28;20028;-75
2022/11/06 03:16:46;;;;;;;33.78;21.95;;;333.10;2278.40;;;;;;5092756;28;20028;-75
2022/11/06 03:19:41;;;;;;;39.13;23.40;;;333.00;2329.60;;;;;;5092500;28;20031;-75
2022/11/06 03:22:19;;;;;;;31.00;19.52;;;333.10;2329.60;;;;;;5091481;28;20490;-78
2022/11/06 03:25:03;;;;;;;31.00;20.15;;;333.00;2329.60;;;;;;5092299;28;20028;-76
2022/11/06 03:27:40;;;;;;;33.15;19.67;;;333.00;2329.60;;;;;;5091376;28;20103;-75
2022/11/06 03:30:09;;;;;;;31.08;19.60;;;333.10;2329.60;;;;;;5092180;28;20013;-78
2022/11/06 03:32:53;;;;;;;28.63;18.23;;;333.00;2329.60;;;;;;5089719;28;20032;-76
2022/11/06 03:35:40;;;;;;;28.50;18.48;;;333.00;2329.60;;;;;;5090226;28;20052;-77
2022/11/06 03:38:18;;;;;;;;;;;333.00;2329.60;;;;;;5090972;28;20031;-78
2022/11/06 03:40:48;;;;;;;25.25;17.13;;;332.90;2329.60;;;;;;5090495;28;19923;-78
2022/11/06 03:43:16;;;;;;;28.63;17.35;;;332.90;2329.60;;;;;;5073977;28;20019;-74
2022/11/06 03:45:44;;;;;;;28.60;18.75;;;332.90;2329.60;;;;;;5092075;28;20103;-75
2022/11/06 03:48:18;;;;;;;32.38;18.88;;;332.80;2329.60;;;;;;5092222;28;20070;-75
2022/11/06 03:51:20;;;;;;;28.60;18.45;;;332.90;2329.60;;;;;;5090416;28;20028;-75
2022/11/06 03:53:51;;;;;;;29.55;19.38;;;333.00;2329.60;;;;;;5063507;28;20064;-75
2022/11/06 03:56:39;;;;;;;33.78;19.60;;;332.90;2329.60;;;;;;5088921;28;20028;-78
2022/11/06 03:59:07;;;;;;;26.92;18.10;;;333.00;2329.60;;;;;;5071803;28;20065;-75
2022/11/06 04:01:38;;;;;;;31.00;19.33;;;333.00;2329.60;;;;;;5091618;28;20504;-77
2022/11/06 04:04:19;;;;;;;32.42;19.90;;;332.90;2329.60;;;;;;5091850;28;20055;-77
2022/11/06 04:07:05;;;;;;;33.85;18.67;;;333.00;2329.60;;;;;;5090152;28;20059;-78
2022/11/06 04:15:10;;;;;;;30.08;19.80;;;333.10;2329.60;;;;;;5090364;28;20444;-75
2022/11/06 04:17:37;;;;;;;33.75;21.48;;;333.10;2329.60;;;;;;5091274;28;20181;-75
2022/11/06 04:20:07;;;;;;;38.47;20.23;;;333.10;2329.60;;;;;;5091614;28;20016;-75
2022/11/06 04:22:56;;;;;;;38.13;21.75;;;333.10;2329.60;;;;;;5091497;28;20466;-76
2022/11/06 04:28:52;;;;;;;43.03;23.90;;;333.20;2329.60;;;;;;5029227;28;20502;-75
2022/11/06 04:31:20;;;;;;;40.80;22.75;;;333.20;2278.40;;;;;;5028729;28;20040;-75
2022/11/06 04:33:57;;;;;;;36.25;22.15;;;333.10;2329.60;;;;;;5012888;28;20124;-74
2022/11/06 04:36:56;;;;;;;42.25;22.17;;;333.00;2329.60;;;;;;5029110;28;20171;-76
2022/11/06 04:39:36;;;;;;;41.25;22.08;;;333.00;2329.60;;;;;;5012618;28;20014;-78
2022/11/06 04:42:23;;;;;;;34.47;22.17;;;333.10;2329.60;;;;;;5028500;28;20045;-77
2022/11/06 04:44:57;;;;;;;34.17;21.55;;;333.20;2329.60;;;;;;5029424;28;20058;-76
2022/11/06 04:47:24;;;;;;;37.92;20.55;;;333.20;2329.60;;;;;;5012455;28;20160;-79
2022/11/06 04:49:55;;;;;;;40.08;19.92;;;333.20;2329.60;;;;;;5012422;28;20036;-76
2022/11/06 04:52:26;;;;;;;33.03;19.45;;;333.20;2201.60;;;;;;5026260;28;20032;-78
2022/11/06 04:54:53;;;;;;;34.97;19.77;;;333.20;2329.60;;;;;;5012313;28;20022;-77
2022/11/06 04:57:20;;;;;;;34.55;21.55;;;333.20;2329.60;;;;;;5028903;28;20125;-76
2022/11/06 04:59:46;;;;;;;37.58;19.65;;;333.20;2329.60;;;;;;5029080;28;20024;-77
2022/11/06 05:02:12;;;;;;;36.15;21.00;;;333.10;2329.60;;;;;;5038323;28;20028;-76
2022/11/06 05:04:38;;;;;;;38.00;20.95;;;333.00;2329.60;;;;;;5072885;28;20024;-76
2022/11/06 05:07:03;;;;;;;48.35;22.60;;;333.00;2329.60;;;;;;5091644;28;20024;-78
2022/11/06 05:09:30;;;;;;;42.78;23.23;;;333.00;2329.60;;;;;;5073127;28;20020;-77
2022/11/06 05:11:56;;;;;;;47.08;23.10;;;333.00;2329.60;;;;;;5072868;28;20046;-76
2022/11/06 05:14:21;;;;;;;42.55;24.10;;;333.00;2329.60;;;;;;5073328;28;20480;-77
2022/11/06 05:16:47;;;;;;;42.25;23.15;;;333.00;2329.60;;;;;;5091107;28;20028;-77
2022/11/06 05:19:13;;;;;;;44.20;25.25;;;333.00;2329.60;;;;;;5073203;28;20016;-76
2022/11/06 05:24:23;;;;;;;38.45;23.73;;;333.20;2329.60;;;;;;5088479;28;20050;-76
2022/11/06 05:26:48;;;;;;;46.80;23.88;;;333.10;2329.60;;;;;;5072915;28;20478;-76
2022/11/06 05:29:14;;;;;;;41.58;23.42;;;333.10;2329.60;;;;;;5074132;28;20065;-78
2022/11/06 05:31:40;;;;;;;42.17;25.25;;;333.10;2329.60;;;;;;5076705;28;20048;-76
2022/11/06 05:34:06;;;;;;;45.15;24.55;;;333.10;2329.60;;;;;;5076524;28;20465;-76
2022/11/06 05:36:32;;;;;;;44.30;23.73;;;333.00;2329.60;;;;;;5076495;28;20055;-76
2022/11/06 05:38:57;;;;;;;51.65;25.15;;;333.00;2329.60;;;;;;5075531;28;20035;-76
2022/11/06 05:41:23;;;;;;;53.30;28.63;;;333.10;2329.60;;;;;;5073443;28;20453;-75
2022/11/06 05:43:49;;;;;;;64.03;28.02;;;333.10;2329.60;;;;;;5076021;28;20077;-76
2022/11/06 05:46:14;;;;;;;57.08;26.08;;;333.20;2329.60;;;;;;5076249;28;20056;-76
2022/11/06 05:48:40;;;;;;;65.38;29.10;;;333.20;2329.60;;;;;;5075826;28;20059;-76
2022/11/06 05:51:07;;;;;;;62.15;27.98;;;333.20;2329.60;;;;;;5076398;28;20035;-78
2022/11/06 05:53:35;;;;;;;68.53;29.98;;;333.20;2329.60;;;;;;5076174;28;20092;-78
2022/11/06 05:56:02;;;;;;;65.05;29.38;;;333.10;2329.60;;;;;;5076058;28;20031;-77
2022/11/06 05:58:28;;;;;;;60.28;29.75;;;333.20;2329.60;;;;;;5076122;28;20484;-76
2022/11/06 06:00:54;;;;;;;57.92;28.88;;;333.30;2329.60;;;;;;5075811;28;20027;-78
2022/11/06 06:03:21;;;;;;;67.15;32.13;;;333.20;2329.60;;;;;;5094170;28;20089;-79
2022/11/06 06:05:47;;;;;;;59.53;28.13;;;333.20;2329.60;;;;;;5076206;28;20542;-79
2022/11/06 06:08:13;;;;;;;56.10;25.40;;;333.30;2329.60;;;;;;5094259;28;20020;-78
2022/11/06 06:10:43;;;;;;;54.92;24.52;;;333.30;2329.60;;;;;;5075949;28;20028;-77
2022/11/06 06:13:10;;;;;;;55.03;24.52;;;333.30;2329.60;;;;;;5073500;28;20111;-76
2022/11/06 06:15:40;;;;;;;60.10;27.40;;;333.30;2329.60;;;;;;5093624;28;20119;-75
2022/11/06 06:18:07;;;;;;;65.20;28.88;;;333.20;2329.60;;;;;;5075454;28;20073;-78
2022/11/06 06:20:34;;;;;;;59.17;26.88;;;333.10;2329.60;;;;;;5075792;28;20020;-76
2022/11/06 06:23:00;;;;;;;62.90;26.92;;;333.00;2329.60;;;;;;5075664;28;20684;-76
2022/11/06 06:25:27;;;;;;;69.13;28.60;;;332.90;2329.60;;;;;;5075615;28;20550;-76
2022/11/06 06:27:53;;;;;;;78.88;29.70;;;332.90;2329.60;;;;;;5093230;28;20128;-78
2022/11/06 06:30:21;;;;;;;83.18;30.85;;;333.00;2329.60;;;;;;5075537;28;20028;-77
2022/11/06 06:32:46;;;;;;;91.55;34.00;;;332.90;2329.60;;;;;;5093462;28;20019;-76
2022/11/06 06:35:12;;;;;;;87.28;32.38;;;332.90;2329.60;;;;;;5075551;28;20020;-78
2022/11/06 06:37:38;;;;;;;82.65;33.08;;;332.90;2329.60;;;;;;5075409;28;20061;-77
2022/11/06 06:40:05;;;;;;;71.63;33.00;;;333.00;2329.60;;;;;;5075110;28;20024;-79
2022/11/06 06:42:31;;;;;;;87.72;35.38;;;333.10;2329.60;;;;;;5074555;28;20523;-77
2022/11/06 06:44:57;;;;;;;81.72;33.53;;;333.10;2329.60;;;;;;5074394;28;20028;-75
2022/11/06 06:47:22;;;;;;;97.40;38.45;;;333.10;2329.60;;;;;;5074499;28;20027;-78
2022/11/06 06:49:48;;;;;;;99.00;41.30;;;333.00;2329.60;;;;;;5075458;28;20161;-77
2022/11/06 06:52:14;;;;;;;98.65;36.78;;;333.00;2329.60;;;;;;5075059;28;20056;-78
2022/11/06 06:54:40;;;;;;;106.93;42.30;;;333.00;2329.60;;;;;;5075130;28;20024;-77
2022/11/06 06:57:09;;;;;;;94.78;38.75;;;333.00;2329.60;;;;;;5075257;28;20031;-75
2022/11/06 06:59:34;;;;;;;98.82;37.95;;;333.00;2329.60;;;;;;5092860;28;20474;-79
2022/11/06 07:02:00;;;;;;;101.07;34.15;;;333.00;2329.60;;;;;;5093232;28;20035;-78
2022/11/06 07:04:26;;;;;;;95.22;37.53;;;333.00;2329.60;;;;;;5074656;28;20021;-76
2022/11/06 07:06:54;;;;;;;85.00;35.08;;;333.10;2329.60;;;;;;5092864;28;20035;-75
2022/11/06 07:09:23;;;;;;;92.35;35.97;;;333.10;2329.60;;;;;;5071945;28;20021;-77
2022/11/06 07:11:49;;;;;;;95.50;38.83;;;333.00;2329.60;;;;;;5074985;28;20504;-75
2022/11/06 07:14:15;;;;;;;97.13;39.42;;;333.00;2329.60;;;;;;5092603;28;20780;-75
2022/11/06 07:16:41;;;;;;;118.93;46.80;;;333.10;2329.60;;;;;;5074607;28;20048;-74
2022/11/06 07:19:07;;;;;;;155.57;78.43;;;333.20;2329.60;;;;;;5074379;28;20055;-74
2022/11/06 07:21:32;;;;;;;99.63;45.60;;;333.20;2329.60;;;;;;5074864;28;20035;-76
2022/11/06 07:23:58;;;;;;;96.88;40.53;;;333.10;2329.60;;;;;;5075013;28;20020;-76
2022/11/06 07:26:24;;;;;;;95.93;40.47;;;333.20;2329.60;;;;;;5081288;28;20040;-75
2022/11/06 07:28:50;;;;;;;86.80;39.42;;;333.30;2329.60;;;;;;5092609;28;20032;-77
2022/11/06 07:31:15;;;;;;;96.25;37.35;;;333.30;2329.60;;;;;;5074897;28;20040;-77
2022/11/06 07:33:41;;;;;;;96.82;42.15;;;333.30;2329.60;;;;;;5071066;28;20020;-77
2022/11/06 07:36:11;;;;;;;91.30;39.08;;;333.30;2329.60;;;;;;5074934;28;20397;-78
2022/11/06 07:38:38;;;;;;;84.35;35.78;;;333.20;2329.60;;;;;;5074515;28;20035;-77
2022/11/06 07:41:06;;;;;;;80.53;34.65;;;333.20;2329.60;;;;;;5074437;28;20128;-77
2022/11/06 07:43:32;;;;;;;85.90;36.70;;;333.30;2329.60;;;;;;5092068;28;20027;-79
2022/11/06 07:46:00;;;;;;;86.07;35.85;;;333.30;2329.60;;;;;;5074810;28;20024;-77
2022/11/06 07:48:31;;;;;;;86.40;36.50;;;333.20;2329.60;;;;;;5074701;28;20048;-76
2022/11/06 07:50:57;;;;;;;96.97;38.05;;;333.30;2329.60;;;;;;5092401;28;20108;-77
2022/11/06 07:53:23;;;;;;;114.28;41.72;;;333.30;2329.60;;;;;;5092352;28;20070;-79
2022/11/06 07:55:50;;;;;;;83.22;39.33;;;333.40;2329.60;;;;;;5074543;28;20036;-78
2022/11/06 07:58:17;;;;;;;98.72;43.42;;;333.40;2329.60;;;;;;5074794;28;20030;-77
2022/11/06 08:00:54;;;;;;;106.20;47.03;;;333.50;2329.60;;;;;;5074373;28;20086;-77
2022/11/06 08:03:21;;;;;;;78.70;35.58;;;333.40;2329.60;;;;;;5092878;28;20493;-78
2022/11/06 08:05:47;;;;;;;88.88;39.85;;;333.30;2329.60;;;;;;5070743;28;20102;-78
2022/11/06 08:08:13;;;;;;;92.88;41.50;;;333.30;2329.60;;;;;;5065119;28;20020;-77
2022/11/06 08:10:42;;;;;;;82.35;37.58;;;333.40;2329.60;;;;;;5092243;28;20457;-77
2022/11/06 08:13:13;;;;;;;92.10;39.55;;;333.40;2329.60;;;;;;5074276;28;20020;-78
2022/11/06 08:15:40;;;;;;;104.00;42.63;;;333.40;2329.60;;;;;;5072402;28;20111;-77
2022/11/06 08:18:07;;;;;;;98.18;46.78;;;333.40;2329.60;;;;;;5058978;28;20032;-78
2022/11/06 08:20:34;;;;;;;98.75;46.42;;;333.40;2329.60;;;;;;5071071;28;20459;-78
2022/11/06 08:23:01;;;;;;;99.63;42.33;;;333.40;2329.60;;;;;;5073695;28;20032;-76
2022/11/06 08:25:29;;;;;;;90.70;43.28;;;333.40;2329.60;;;;;;5074026;28;20545;-77
2022/11/06 08:27:59;;;;;;;82.82;39.10;;;333.50;2329.60;;;;;;5091460;28;20020;-77
2022/11/06 08:30:27;;;;;;;85.45;38.60;;;333.50;2329.60;;;;;;5073301;28;20028;-78
2022/11/06 08:32:53;;;;;;;101.00;39.90;;;333.50;2329.60;;;;;;5057030;28;20479;-79
2022/11/06 08:35:18;;;;;;;96.00;41.05;;;333.50;2329.60;;;;;;5062430;28;20033;-77
2022/11/06 08:37:44;;;;;;;99.28;42.03;;;333.60;2329.60;;;;;;5075777;28;20039;-76
2022/11/06 08:40:11;;;;;;;77.88;37.35;;;333.60;2329.60;;;;;;5073440;28;20024;-74
2022/11/06 08:42:37;;;;;;;88.88;40.08;;;333.60;2329.60;;;;;;5091818;28;20028;-77
2022/11/06 08:45:04;;;;;;;97.45;37.88;;;333.60;2329.60;;;;;;5073769;28;20443;-78
2022/11/06 08:47:29;;;;;;;89.63;42.78;;;333.60;2329.60;;;;;;5074093;28;20028;-78
2022/11/06 08:49:55;;;;;;;89.35;39.40;;;333.60;2329.60;;;;;;5092116;28;20462;-78
2022/11/06 08:52:21;;;;;;;104.90;42.90;;;333.60;2329.60;;;;;;5073539;28;20492;-79
2022/11/06 08:54:47;;;;;;;75.82;35.78;;;333.50;2329.60;;;;;;5073787;28;20534;-78
2022/11/06 08:57:12;;;;;;;78.65;36.03;;;333.60;2329.60;;;;;;5074036;28;20539;-80
2022/11/06 08:59:38;;;;;;;82.68;35.47;;;333.70;2329.60;;;;;;5059931;28;20021;-78
2022/11/06 09:02:04;;;;;;;80.78;37.17;;;333.70;2329.60;;;;;;5073936;28;20386;-78
2022/11/06 09:04:29;;;;;;;80.40;36.47;;;333.70;2329.60;;;;;;5060824;28;20041;-77
2022/11/06 09:06:56;;;;;;;89.25;35.03;;;333.70;2329.60;;;;;;5082022;28;20097;-79
2022/11/06 09:09:22;;;;;;;82.95;37.40;;;333.70;2329.60;;;;;;5077534;28;20115;-79
2022/11/06 09:11:48;;;;;;;85.15;34.65;;;333.70;2329.60;;;;;;5077212;28;20111;-78
2022/11/06 09:14:14;;;;;;;89.78;36.30;;;333.70;2329.60;;;;;;5095149;28;20028;-80
2022/11/06 09:16:39;;;;;;;92.80;38.65;;;333.70;2329.60;;;;;;5077314;28;20044;-79
2022/11/06 09:19:05;;;;;;;91.47;40.45;;;333.70;2329.60;;;;;;5077773;28;20024;-77
2022/11/06 09:21:31;;;;;;;101.32;43.72;;;333.70;2329.60;;;;;;5076582;28;20071;-79
2022/11/06 09:23:57;;;;;;;96.15;41.22;;;358.40;2329.60;;;;;;5076753;28;20547;-80
2022/11/06 09:26:23;;;;;;;93.97;37.70;;;358.40;2329.60;;;;;;5071715;28;20020;-79
2022/11/06 09:28:48;;;;;;;105.97;45.97;;;358.40;2329.60;;;;;;5076733;28;20023;-77
2022/11/06 09:31:14;;;;;;;104.93;46.85;;;358.50;2329.60;;;;;;5076850;28;20385;-78
2022/11/06 09:33:40;;;;;;;110.93;50.65;;;358.50;2329.60;;;;;;5075835;28;20127;-78
2022/11/06 09:36:06;;;;;;;92.50;43.75;;;358.50;2329.60;;;;;;5077239;28;20081;-77
2022/11/06 09:38:32;;;;;;;87.22;39.85;;;358.50;2329.60;;;;;;5076779;28;20024;-78
2022/11/06 09:41:02;;;;;;;95.38;43.20;;;358.50;2329.60;;;;;;5069848;28;20040;-78
2022/11/06 09:44:05;;;;;;;82.15;37.85;;;358.50;2329.60;;;;;;5074793;28;20021;-77
2022/11/06 09:46:38;;;;;;;71.15;36.17;;;358.50;2329.60;;;;;;5074807;28;20366;-78
2022/11/06 09:49:18;;;;;;;91.72;39.28;;;358.40;2329.60;;;;;;5056950;28;20532;-77
2022/11/06 09:51:53;;;;;;;82.90;37.97;;;358.50;2329.60;;;;;;5056642;28;20054;-78
2022/11/06 09:54:27;;;;;;;90.82;42.17;;;358.50;2329.60;;;;;;5055224;28;20037;-78
2022/11/06 09:57:09;;;;;;;84.85;40.28;;;358.40;2329.60;;;;;;5073348;28;20036;-77
2022/11/06 09:59:40;;;;;;;84.60;38.83;;;358.50;2329.60;;;;;;5046354;28;20044;-79
2022/11/06 10:02:27;;;;;;;96.00;44.00;;;358.50;2329.60;;;;;;5073728;28;20017;-77
2022/11/06 10:05:01;;;;;;;103.60;47.33;;;358.50;2329.60;;;;;;5072155;28;20043;-76
2022/11/06 10:07:32;;;;;;;116.95;48.92;;;358.50;2329.60;;;;;;5056739;28;20386;-79
2022/11/06 10:09:59;;;;;;;118.80;52.08;;;358.50;2329.60;;;;;;5056294;28;20027;-77
2022/11/06 10:12:43;;;;;;;104.85;49.45;;;358.50;2329.60;;;;;;5074812;28;20013;-79
2022/11/06 10:15:21;;;;;;;108.35;50.20;;;358.50;2329.60;;;;;;5049589;28;20119;-79
2022/11/06 10:18:19;;;;;;;105.20;48.80;;;358.50;2329.60;;;;;;5056418;28;20039;-77
2022/11/06 10:20:52;;;;;;;101.63;46.00;;;358.50;2329.60;;;;;;5055658;28;20033;-79
2022/11/06 10:23:25;;;;;;;92.60;46.88;;;358.50;2329.60;;;;;;5053253;28;20036;-79
2022/11/06 10:26:17;;;;;;;96.65;48.67;;;358.60;2329.60;;;;;;5043093;28;20058;-80
2022/11/06 10:29:17;;;;;;;142.38;73.55;;;358.70;2329.60;;;;;;4943873;28;20035;-80
2022/11/06 10:32:02;;;;;;;173.25;92.53;;;358.60;2329.60;;;;;;4973483;28;20481;-79
2022/11/06 10:34:35;;;;;;;137.55;64.13;;;358.70;2329.60;;;;;;4961525;28;20042;-79
2022/11/06 10:37:13;;;;;;;114.72;61.22;;;358.70;2329.60;;;;;;4943656;28;20035;-78
2022/11/06 10:39:40;;;;;;;112.70;52.35;;;358.70;2329.60;;;;;;4973611;28;20027;-80
2022/11/06 10:42:13;;;;;;;106.28;53.17;;;358.70;2329.60;;;;;;4972881;28;20047;-79
2022/11/06 10:44:56;;;;;;;102.70;50.40;;;358.60;2329.60;;;;;;4973056;28;20027;-79
2022/11/06 10:47:34;;;;;;;103.63;50.75;;;358.60;2329.60;;;;;;4956448;28;20031;-79
2022/11/06 10:50:03;;;;;;;106.80;52.85;;;358.70;2329.60;;;;;;4972493;28;20038;-78
2022/11/06 10:52:44;;;;;;;99.55;50.97;;;358.70;2329.60;;;;;;4955374;28;20482;-78
2022/11/06 10:55:38;;;;;;;92.60;45.05;;;358.70;2329.60;;;;;;4971082;28;20469;-79
2022/11/06 10:58:08;;;;;;;92.30;49.35;;;358.60;2329.60;;;;;;4954114;28;20027;-79
2022/11/06 11:00:34;;;;;;;92.10;47.60;;;358.60;2329.60;;;;;;4956108;28;20031;-79
2022/11/06 11:03:02;;;;;;;80.07;43.72;;;358.60;2329.60;;;;;;4956124;28;20201;-79
2022/11/06 11:05:39;;;;;;;71.97;40.38;;;358.70;2329.60;;;;;;4995211;28;20119;-79
2022/11/06 11:08:25;;;;;;;69.00;40.97;;;358.60;2329.60;;;;;;5052814;28;20154;-77
2022/11/06 11:10:51;;;;;;;79.73;45.47;;;358.60;2329.60;;;;;;5070585;28;20024;-77
2022/11/06 11:13:20;;;;;;;73.78;44.10;;;358.70;2329.60;;;;;;5054581;28;20029;-78
2022/11/06 11:15:47;;;;;;;73.60;43.22;;;358.70;2329.60;;;;;;5068678;28;20029;-78
2022/11/06 11:18:39;;;;;;;77.45;47.22;;;358.70;2329.60;;;;;;5073084;28;20032;-79
2022/11/06 11:21:14;;;;;;;73.72;44.33;;;358.70;2329.60;;;;;;5069765;28;20037;-78
2022/11/06 11:23:40;;;;;;;69.72;42.30;;;358.80;2252.80;;;;;;5054676;28;20422;-77
2022/11/06 11:26:20;;;;;;;63.00;38.00;;;358.70;2022.40;;;;;;5072288;28;20017;-77
2022/11/06 11:28:55;;;;;;;64.70;40.70;;;358.70;2329.60;;;;;;5054984;28;20032;-77
2022/11/06 11:31:28;;;;;;;61.70;41.03;;;358.80;2329.60;;;;;;5054033;28;20060;-77
2022/11/06 11:33:57;;;;;;;74.35;45.78;;;358.90;2329.60;;;;;;5073081;28;20028;-79
2022/11/06 11:36:23;;;;;;;62.97;37.65;;;358.90;2329.60;;;;;;5054437;28;20031;-78
2022/11/06 11:38:50;;;;;;;50.47;34.92;;;358.90;2329.60;;;;;;5072066;28;20882;-77
2022/11/06 11:41:19;;;;;;;61.92;38.45;;;358.90;2329.60;;;;;;5062983;28;20047;-79
2022/11/06 11:44:11;;;;;;;58.28;40.55;;;358.90;2329.60;;;;;;5074127;28;20184;-79
2022/11/06 11:46:50;;;;;;;53.05;34.95;;;358.90;2329.60;;;;;;5087178;28;20025;-79
2022/11/06 11:49:30;;;;;;;53.45;34.88;;;359.00;2329.60;;;;;;5085227;28;20024;-78
2022/11/06 11:51:59;;;;;;;49.00;32.10;;;359.00;2329.60;;;;;;5065586;28;20201;-79
2022/11/06 11:54:29;;;;;;;51.15;33.92;;;358.90;2329.60;;;;;;5074509;28;20024;-80
2022/11/06 11:57:07;;;;;;;47.10;33.35;;;358.90;2329.60;;;;;;5072789;28;20032;-78
2022/11/06 11:59:46;;;;;;;53.92;33.63;;;358.80;2329.60;;;;;;5092024;28;20479;-79
2022/11/06 12:02:33;;;;;;;55.35;35.38;;;358.80;2329.60;;;;;;5073409;28;20028;-78
2022/11/06 12:05:13;;;;;;;47.42;31.80;;;358.90;2329.60;;;;;;5074667;28;20016;-78
2022/11/06 12:07:55;;;;;;;47.13;31.00;;;358.90;2329.60;;;;;;5092624;28;20020;-79
2022/11/06 12:10:35;;;;;;;40.03;29.58;;;358.90;2329.60;;;;;;5074039;28;20032;-78
2022/11/06 12:13:22;;;;;;;48.50;31.30;;;358.90;2329.60;;;;;;5091609;28;20066;-79
2022/11/06 12:15:54;;;;;;;46.28;32.95;;;358.90;2329.60;;;;;;5073451;28;20043;-78
2022/11/06 12:18:27;;;;;;;46.97;30.95;;;358.90;2329.60;;;;;;5073428;28;20035;-78
2022/11/06 12:21:10;;;;;;;58.38;35.58;;;358.90;2329.60;;;;;;5059829;28;20024;-78
2022/11/06 12:23:46;;;;;;;45.92;31.10;;;358.90;2329.60;;;;;;5090187;28;20069;-77
2022/11/06 12:26:23;;;;;;;47.22;27.23;;;358.90;2329.60;;;;;;5089341;28;20024;-78
2022/11/06 12:28:55;;;;;;;32.42;23.40;;;359.00;2329.60;;;;;;5059286;28;20029;-79
2022/11/06 12:31:41;;;;;;;34.10;23.15;;;358.90;2329.60;;;;;;5073328;28;20020;-78
2022/11/06 12:34:12;;;;;;;;;;;358.90;2329.60;;;;;;5073101;28;20478;-78